Avoca, Indiana
Current Conditions -  °F | °C
As of 2:53 AM on Friday 28 Nov 2014 (Local Time) from KBMG Reporting Station
Clear Clear  
Wind Chill: 18°   Ceiling: Unl
Heat Index: 18°   Visibility: 7mi
Dew Point: 15°   Wind: 3mph
Humidity: 88%   Direction: 220°SW
Pressure: 30.39"   Gusts: NA
Location:  38.91°N, 86.55°W
Report Text: KBMG 280753Z AUTO 22003KT 7SM CLR M08/M09 A3039 RMK AO2 SLP303 I1000 T10781094
Loading
Personal Weather Stations






























Interactive Weather Map New forecast layout! Learn more

10-Day Weather Forecast

Advertisements
Track Severe Weather on mobile